Time,TemperatureF,DewpointF,PressureIn,WindDirection,WindDirectionDegrees,WindSpeedMPH,WindSpeedGustMPH,Humidity,HourlyPrecipIn,Conditions,Clouds,dailyrainin,SoftwareType,DateUTC
2013-10-10 00:25:00,65.0,-99.9,-100.00,SW,223,12.0,18.0,-999,-99.99,,,-99.99,,2013-10-10 04:25:00,
2013-10-10 00:33:00,65.0,-99.9,-100.00,SW,223,12.0,18.0,-999,-99.99,,,-99.99,,2013-10-10 04:33:00,
2013-10-10 00:40:00,64.0,-99.9,-100.00,SSW,213,8.0,18.0,-999,-99.99,,,-99.99,,2013-10-10 04:40:00,
2013-10-10 01:12:00,64.0,-99.9,-100.00,SSW,213,8.0,18.0,-999,-99.99,,,-99.99,,2013-10-10 05:12:00,
2013-10-10 01:23:00,64.0,-99.9,-100.00,SSW,213,8.0,18.0,-999,-99.99,,,-99.99,,2013-10-10 05:23:00,
2013-10-10 01:34:00,64.0,-99.9,-100.00,SSW,213,8.0,18.0,-999,-99.99,,,-99.99,,2013-10-10 05:34:00,
2013-10-10 01:40:00,63.0,-99.9,-100.00,SSW,209,8.0,16.0,-999,-99.99,,,-99.99,,2013-10-10 05:40:00,
2013-10-10 02:22:00,63.0,-99.9,-100.00,SSW,209,8.0,16.0,-999,-99.99,,,-99.99,,2013-10-10 06:22:00,
2013-10-10 02:33:00,63.0,-99.9,-100.00,SSW,209,8.0,16.0,-999,-99.99,,,-99.99,,2013-10-10 06:33:00,
2013-10-10 02:40:00,63.0,-99.9,-100.00,SSE,163,4.0,12.0,-999,-99.99,,,-99.99,,2013-10-10 06:40:00,
2013-10-10 03:11:00,63.0,-99.9,-100.00,SSE,163,4.0,12.0,-999,-99.99,,,-99.99,,2013-10-10 07:11:00,
2013-10-10 03:22:00,63.0,-99.9,-100.00,SSE,163,4.0,12.0,-999,-99.99,,,-99.99,,2013-10-10 07:22:00,
2013-10-10 03:32:00,63.0,-99.9,-100.00,SSE,163,4.0,12.0,-999,-99.99,,,-99.99,,2013-10-10 07:32:00,
2013-10-10 03:40:00,59.0,-99.9,-100.00,East,85,1.0,2.0,-999,-99.99,,,-99.99,,2013-10-10 07:40:00,
2013-10-10 04:11:00,59.0,-99.9,-100.00,East,85,1.0,2.0,-999,-99.99,,,-99.99,,2013-10-10 08:11:00,
2013-10-10 04:22:00,59.0,-99.9,-100.00,East,85,1.0,2.0,-999,-99.99,,,-99.99,,2013-10-10 08:22:00,
2013-10-10 04:32:00,59.0,-99.9,-100.00,East,85,1.0,2.0,-999,-99.99,,,-99.99,,2013-10-10 08:32:00,
2013-10-10 04:40:00,56.0,-99.9,-100.00,WSW,239,0.0,3.0,-999,-99.99,,,-99.99,,2013-10-10 08:40:00,
2013-10-10 05:12:00,56.0,-99.9,-100.00,WSW,239,0.0,3.0,-999,-99.99,,,-99.99,,2013-10-10 09:12:00,
2013-10-10 05:22:00,56.0,-99.9,-100.00,WSW,239,0.0,3.0,-999,-99.99,,,-99.99,,2013-10-10 09:22:00,
2013-10-10 05:33:00,56.0,-99.9,-100.00,WSW,239,0.0,3.0,-999,-99.99,,,-99.99,,2013-10-10 09:33:00,
2013-10-10 05:40:00,54.0,-99.9,-100.00,NE,42,1.0,3.0,-999,-99.99,,,-99.99,,2013-10-10 09:40:00,
2013-10-10 06:23:00,54.0,-99.9,-100.00,NE,42,1.0,3.0,-999,-99.99,,,-99.99,,2013-10-10 10:23:00,
2013-10-10 06:33:00,54.0,-99.9,-100.00,NE,42,1.0,3.0,-999,-99.99,,,-99.99,,2013-10-10 10:33:00,
2013-10-10 06:40:00,51.0,-99.9,-100.00,WNW,291,1.0,3.0,-999,-99.99,,,-99.99,,2013-10-10 10:40:00,
2013-10-10 07:12:00,51.0,-99.9,-100.00,WNW,291,1.0,3.0,-999,-99.99,,,-99.99,,2013-10-10 11:12:00,
2013-10-10 07:22:00,51.0,-99.9,-100.00,WNW,291,1.0,3.0,-999,-99.99,,,-99.99,,2013-10-10 11:22:00,
2013-10-10 07:33:00,51.0,-99.9,-100.00,WNW,291,1.0,3.0,-999,-99.99,,,-99.99,,2013-10-10 11:33:00,
2013-10-10 07:40:00,50.0,-99.9,-100.00,SW,215,1.0,2.0,-999,-99.99,,,-99.99,,2013-10-10 11:40:00,
2013-10-10 08:21:00,50.0,-99.9,-100.00,SW,215,1.0,2.0,-999,-99.99,,,-99.99,,2013-10-10 12:21:00,
2013-10-10 08:32:00,50.0,-99.9,-100.00,SW,215,1.0,2.0,-999,-99.99,,,-99.99,,2013-10-10 12:32:00,
2013-10-10 08:40:00,49.0,-99.9,-100.00,SSW,201,1.0,2.0,-999,-99.99,,,-99.99,,2013-10-10 12:40:00,
2013-10-10 09:21:00,49.0,-99.9,-100.00,SSW,201,1.0,2.0,-999,-99.99,,,-99.99,,2013-10-10 13:21:00,
2013-10-10 09:32:00,49.0,-99.9,-100.00,SSW,201,1.0,2.0,-999,-99.99,,,-99.99,,2013-10-10 13:32:00,
2013-10-10 09:40:00,56.0,-99.9,-100.00,South,170,2.0,2.0,-999,-99.99,,,-99.99,,2013-10-10 13:40:00,
2013-10-10 10:22:00,56.0,-99.9,-100.00,South,170,2.0,2.0,-999,-99.99,,,-99.99,,2013-10-10 14:22:00,
2013-10-10 10:32:00,56.0,-99.9,-100.00,South,170,2.0,2.0,-999,-99.99,,,-99.99,,2013-10-10 14:32:00,
2013-10-10 10:40:00,64.0,-99.9,-100.00,SSE,156,1.0,2.0,-999,-99.99,,,-99.99,,2013-10-10 14:40:00,
2013-10-10 11:12:00,64.0,-99.9,-100.00,SSE,156,1.0,2.0,-999,-99.99,,,-99.99,,2013-10-10 15:12:00,
2013-10-10 11:22:00,64.0,-99.9,-100.00,SSE,156,1.0,2.0,-999,-99.99,,,-99.99,,2013-10-10 15:22:00,
2013-10-10 11:33:00,64.0,-99.9,-100.00,SSE,156,1.0,2.0,-999,-99.99,,,-99.99,,2013-10-10 15:33:00,
2013-10-10 11:40:00,65.0,-99.9,-100.00,NNE,27,2.0,3.0,-999,-99.99,,,-99.99,,2013-10-10 15:40:00,
2013-10-10 12:13:00,65.0,-99.9,-100.00,NNE,27,2.0,3.0,-999,-99.99,,,-99.99,,2013-10-10 16:13:00,
2013-10-10 12:23:00,65.0,-99.9,-100.00,NNE,27,2.0,3.0,-999,-99.99,,,-99.99,,2013-10-10 16:23:00,
2013-10-10 12:33:00,65.0,-99.9,-100.00,NNE,27,2.0,3.0,-999,-99.99,,,-99.99,,2013-10-10 16:33:00,
2013-10-10 12:40:00,64.0,-99.9,-100.00,NNW,347,5.0,5.0,-999,-99.99,,,-99.99,,2013-10-10 16:40:00,
2013-10-10 13:23:00,64.0,-99.9,-100.00,NNW,347,5.0,5.0,-999,-99.99,,,-99.99,,2013-10-10 17:23:00,
2013-10-10 13:33:00,64.0,-99.9,-100.00,NNW,347,5.0,5.0,-999,-99.99,,,-99.99,,2013-10-10 17:33:00,
2013-10-10 13:40:00,66.0,-99.9,-100.00,WSW,241,0.0,3.0,-999,-99.99,,,-99.99,,2013-10-10 17:40:00,
2013-10-10 14:12:00,66.0,-99.9,-100.00,WSW,241,0.0,3.0,-999,-99.99,,,-99.99,,2013-10-10 18:12:00,
2013-10-10 14:22:00,66.0,-99.9,-100.00,WSW,241,0.0,3.0,-999,-99.99,,,-99.99,,2013-10-10 18:22:00,
2013-10-10 14:32:00,66.0,-99.9,-100.00,WSW,241,0.0,3.0,-999,-99.99,,,-99.99,,2013-10-10 18:32:00,
2013-10-10 14:40:00,69.0,-99.9,-100.00,ESE,112,2.0,7.0,-999,-99.99,,,-99.99,,2013-10-10 18:40:00,
2013-10-10 15:11:00,69.0,-99.9,-100.00,ESE,112,2.0,7.0,-999,-99.99,,,-99.99,,2013-10-10 19:11:00,
2013-10-10 15:22:00,69.0,-99.9,-100.00,ESE,112,2.0,7.0,-999,-99.99,,,-99.99,,2013-10-10 19:22:00,
2013-10-10 15:32:00,69.0,-99.9,-100.00,ESE,112,2.0,7.0,-999,-99.99,,,-99.99,,2013-10-10 19:32:00,
2013-10-10 15:40:00,66.0,-99.9,-100.00,NNW,342,6.0,8.0,-999,-99.99,,,-99.99,,2013-10-10 19:40:00,
2013-10-10 16:12:00,66.0,-99.9,-100.00,NNW,342,6.0,8.0,-999,-99.99,,,-99.99,,2013-10-10 20:12:00,
2013-10-10 16:22:00,66.0,-99.9,-100.00,NNW,342,6.0,8.0,-999,-99.99,,,-99.99,,2013-10-10 20:22:00,
2013-10-10 16:32:00,66.0,-99.9,-100.00,NNW,342,6.0,8.0,-999,-99.99,,,-99.99,,2013-10-10 20:32:00,
2013-10-10 16:40:00,72.0,-99.9,-100.00,SSE,161,5.0,10.0,-999,-99.99,,,-99.99,,2013-10-10 20:40:00,
2013-10-10 17:12:00,72.0,-99.9,-100.00,SSE,161,5.0,10.0,-999,-99.99,,,-99.99,,2013-10-10 21:12:00,
2013-10-10 17:22:00,72.0,-99.9,-100.00,SSE,161,5.0,10.0,-999,-99.99,,,-99.99,,2013-10-10 21:22:00,
2013-10-10 17:34:00,72.0,-99.9,-100.00,SSE,161,5.0,10.0,-999,-99.99,,,-99.99,,2013-10-10 21:34:00,
2013-10-10 17:40:00,69.0,-99.9,-100.00,SSW,195,1.0,6.0,-999,-99.99,,,-99.99,,2013-10-10 21:40:00,
2013-10-10 18:13:00,69.0,-99.9,-100.00,SSW,195,1.0,6.0,-999,-99.99,,,-99.99,,2013-10-10 22:13:00,
2013-10-10 18:24:00,69.0,-99.9,-100.00,SSW,195,1.0,6.0,-999,-99.99,,,-99.99,,2013-10-10 22:24:00,
2013-10-10 18:33:00,69.0,-99.9,-100.00,SSW,195,1.0,6.0,-999,-99.99,,,-99.99,,2013-10-10 22:33:00,
2013-10-10 18:40:00,63.0,-99.9,-100.00,SW,217,1.0,4.0,-999,-99.99,,,-99.99,,2013-10-10 22:40:00,
2013-10-10 19:12:00,63.0,-99.9,-100.00,SW,217,1.0,4.0,-999,-99.99,,,-99.99,,2013-10-10 23:12:00,
2013-10-10 19:23:00,63.0,-99.9,-100.00,SW,217,1.0,4.0,-999,-99.99,,,-99.99,,2013-10-10 23:23:00,
2013-10-10 19:34:00,63.0,-99.9,-100.00,SW,217,1.0,4.0,-999,-99.99,,,-99.99,,2013-10-10 23:34:00,
2013-10-10 19:40:00,57.0,-99.9,-100.00,SSE,160,0.0,3.0,-999,-99.99,,,-99.99,,2013-10-10 23:40:00,
2013-10-10 20:40:00,54.0,-99.9,-100.00,SW,219,2.0,4.0,-999,-99.99,,,-99.99,,2013-10-11 00:40:00,
2013-10-10 21:22:00,54.0,-99.9,-100.00,SW,219,2.0,4.0,-999,-99.99,,,-99.99,,2013-10-11 01:22:00,
2013-10-10 21:32:00,54.0,-99.9,-100.00,SW,219,2.0,4.0,-999,-99.99,,,-99.99,,2013-10-11 01:32:00,
2013-10-10 21:40:00,53.0,-99.9,-100.00,SSW,213,0.0,2.0,-999,-99.99,,,-99.99,,2013-10-11 01:40:00,
2013-10-10 22:12:00,53.0,-99.9,-100.00,SSW,213,0.0,2.0,-999,-99.99,,,-99.99,,2013-10-11 02:12:00,
2013-10-10 22:22:00,53.0,-99.9,-100.00,SSW,213,0.0,2.0,-999,-99.99,,,-99.99,,2013-10-11 02:22:00,
2013-10-10 22:32:00,53.0,-99.9,-100.00,SSW,213,0.0,2.0,-999,-99.99,,,-99.99,,2013-10-11 02:32:00,
2013-10-10 22:40:00,54.0,-99.9,-100.00,South,180,1.0,4.0,-999,-99.99,,,-99.99,,2013-10-11 02:40:00,
2013-10-10 23:12:00,54.0,-99.9,-100.00,South,180,1.0,4.0,-999,-99.99,,,-99.99,,2013-10-11 03:12:00,
2013-10-10 23:23:00,54.0,-99.9,-100.00,South,180,1.0,4.0,-999,-99.99,,,-99.99,,2013-10-11 03:23:00,
2013-10-10 23:34:00,54.0,-99.9,-100.00,South,180,1.0,4.0,-999,-99.99,,,-99.99,,2013-10-11 03:34:00,
2013-10-10 23:40:00,52.0,-99.9,-100.00,WSW,246,1.0,4.0,-999,-99.99,,,-99.99,,2013-10-11 03:40:00,